Time;durP1;ratioP1;P1;durP2;ratioP2;P2;SDS_P1;SDS_P2;PMS_P1;PMS_P2;Temp;Humidity;BMP_temperature;BMP_pressure;BME280_temperature;BME280_humidity;BME280_pressure;Samples;Min_cycle;Max_cycle;Signal;HPM_P1;HPM_P2
2022/04/23 02:48:13;;;;;;;14.45;10.85;;;8.70;83.90;;;;;;4916380;29;20061;-89
2022/04/23 02:51:20;;;;;;;15.02;11.77;;;8.70;85.00;;;;;;4915767;29;20540;-89
2022/04/23 02:54:52;;;;;;;14.15;11.05;;;8.70;85.00;;;;;;4832439;29;20026;-89
2022/04/23 02:58:35;;;;;;;15.60;11.38;;;8.70;85.60;;;;;;4875020;29;20072;-88
2022/04/23 03:01:36;;;;;;;14.20;10.88;;;8.60;85.80;;;;;;4826221;29;20555;-88
2022/04/23 03:04:02;;;;;;;13.95;11.07;;;8.60;86.30;;;;;;4839967;29;20044;-89
2022/04/23 03:06:30;;;;;;;14.27;11.20;;;8.60;86.90;;;;;;4969890;28;20430;-88
2022/04/23 03:08:56;;;;;;;15.95;12.23;;;8.60;87.80;;;;;;5005407;28;20095;-88
2022/04/23 03:11:22;;;;;;;14.40;11.13;;;8.60;88.80;;;;;;5018280;28;20051;-89
2022/04/23 03:13:48;;;;;;;15.05;11.20;;;8.60;89.40;;;;;;5006185;28;20076;-88
2022/04/23 03:16:14;;;;;;;13.85;11.23;;;8.60;89.80;;;;;;5013068;28;20120;-88
2022/04/23 03:18:39;;;;;;;15.65;11.68;;;8.70;90.20;;;;;;5009417;28;20053;-89
2022/04/23 03:21:05;;;;;;;15.88;12.02;;;8.70;90.50;;;;;;5017641;28;20029;-89
2022/04/23 03:23:31;;;;;;;14.52;11.23;;;8.80;91.00;;;;;;5013926;28;20030;-89
2022/04/23 03:25:57;;;;;;;15.13;11.65;;;8.80;91.20;;;;;;5017324;28;20021;-89
2022/04/23 03:28:23;;;;;;;14.15;11.52;;;8.90;91.20;;;;;;5004792;28;20126;-89
2022/04/23 03:30:48;;;;;;;14.70;11.15;;;8.90;91.40;;;;;;5003327;28;20029;-89
2022/04/23 03:33:16;;;;;;;14.55;11.45;;;9.00;91.70;;;;;;5013132;28;20029;-89
2022/04/23 03:35:41;;;;;;;15.10;11.25;;;9.10;91.90;;;;;;5011503;28;20018;-89
2022/04/23 03:38:08;;;;;;;12.95;10.55;;;9.10;92.10;;;;;;5013086;28;20025;-89
2022/04/23 03:40:33;;;;;;;13.00;10.48;;;9.20;92.20;;;;;;5014123;28;20022;-89
2022/04/23 03:42:59;;;;;;;11.77;9.88;;;9.20;92.40;;;;;;5015006;28;20033;-89
2022/04/23 03:45:29;;;;;;;13.68;10.23;;;9.20;92.50;;;;;;5016438;28;20036;-89
2022/04/23 03:47:55;;;;;;;11.35;8.57;;;9.30;92.80;;;;;;5030302;28;20053;-89
2022/04/23 03:50:21;;;;;;;11.90;9.88;;;9.30;92.70;;;;;;5008972;28;20068;-89
2022/04/23 03:52:46;;;;;;;10.90;8.52;;;9.40;92.90;;;;;;5011448;28;20025;-89
2022/04/23 03:55:13;;;;;;;12.45;9.10;;;9.40;93.00;;;;;;5004233;28;20474;-89
2022/04/23 03:57:49;;;;;;;12.93;8.93;;;9.40;93.10;;;;;;5016340;28;20460;-89
2022/04/23 04:00:16;;;;;;;10.63;8.77;;;9.50;93.40;;;;;;5008682;28;20038;-89
2022/04/23 04:02:44;;;;;;;11.45;9.48;;;9.50;93.30;;;;;;5010764;28;20391;-89
2022/04/23 04:05:10;;;;;;;9.95;8.30;;;9.60;93.40;;;;;;5016543;28;20029;-88
2022/04/23 04:07:39;;;;;;;11.25;9.18;;;9.60;93.40;;;;;;5004002;28;20026;-88
2022/04/23 04:10:05;;;;;;;12.13;9.10;;;9.60;93.50;;;;;;5006531;28;20484;-89
2022/04/23 04:12:31;;;;;;;10.93;8.13;;;9.60;93.60;;;;;;5012533;28;20075;-89
2022/04/23 04:14:57;;;;;;;9.57;8.35;;;9.70;93.60;;;;;;5009912;28;20379;-89
2022/04/23 04:17:23;;;;;;;9.70;7.60;;;9.70;93.50;;;;;;5013916;28;20026;-89
2022/04/23 04:19:49;;;;;;;10.38;8.95;;;9.70;93.60;;;;;;5003282;28;20602;-89
2022/04/23 04:22:15;;;;;;;10.43;8.43;;;9.70;93.70;;;;;;5007658;28;20065;-87
2022/04/23 04:24:40;;;;;;;10.05;8.50;;;9.70;93.70;;;;;;5012879;28;20475;-88
2022/04/23 04:27:07;;;;;;;10.40;8.65;;;9.70;93.80;;;;;;5015567;28;20395;-89
2022/04/23 04:29:32;;;;;;;12.88;9.80;;;9.70;93.90;;;;;;5009082;28;20034;-89
2022/04/23 04:31:58;;;;;;;12.02;9.50;;;9.80;94.00;;;;;;5010284;28;20036;-89
2022/04/23 04:34:29;;;;;;;12.93;9.73;;;9.80;94.00;;;;;;5014901;28;20075;-89
2022/04/23 04:37:09;;;;;;;11.30;9.18;;;9.80;94.10;;;;;;5006911;28;20107;-89
2022/04/23 04:39:39;;;;;;;10.75;8.85;;;9.90;94.30;;;;;;5003640;28;20117;-89
2022/04/23 04:42:06;;;;;;;11.00;9.15;;;9.90;94.30;;;;;;5007941;28;20076;-89
2022/04/23 04:44:32;;;;;;;10.88;9.07;;;10.00;94.10;;;;;;5029669;28;20013;-89
2022/04/23 04:46:58;;;;;;;11.63;9.88;;;10.00;94.10;;;;;;5034975;28;20029;-88
2022/04/23 04:49:23;;;;;;;11.20;9.73;;;10.00;94.20;;;;;;5025981;28;20438;-88
2022/04/23 04:51:50;;;;;;;11.40;9.45;;;10.00;94.20;;;;;;5024996;28;20046;-88
2022/04/23 04:54:21;;;;;;;11.23;9.38;;;10.00;94.20;;;;;;5020742;28;20484;-88
2022/04/23 04:56:50;;;;;;;12.85;10.15;;;10.10;94.20;;;;;;5008841;28;20032;-88
2022/04/23 04:59:16;;;;;;;11.90;10.15;;;10.10;94.30;;;;;;5012980;28;20133;-89
2022/04/23 05:01:42;;;;;;;12.35;10.07;;;10.10;94.30;;;;;;5007191;28;20514;-89
2022/04/23 05:04:08;;;;;;;13.00;10.63;;;10.10;94.30;;;;;;5014192;28;20021;-89
2022/04/23 05:06:33;;;;;;;12.18;10.07;;;10.10;94.30;;;;;;5004564;28;20483;-89
2022/04/23 05:08:59;;;;;;;12.15;9.82;;;10.10;94.40;;;;;;5006564;28;20116;-90
2022/04/23 05:11:25;;;;;;;12.90;10.18;;;10.10;94.30;;;;;;5008579;28;20516;-90
2022/04/23 05:13:51;;;;;;;12.90;10.13;;;10.10;94.40;;;;;;5008708;28;20030;-89
2022/04/23 05:16:17;;;;;;;14.52;10.70;;;10.10;94.50;;;;;;5007948;28;20075;-89
2022/04/23 05:18:42;;;;;;;12.77;10.60;;;10.00;94.50;;;;;;5011568;28;20440;-89
2022/04/23 05:21:08;;;;;;;13.00;11.00;;;10.10;94.60;;;;;;5003878;28;20062;-89
2022/04/23 05:23:41;;;;;;;11.75;9.70;;;10.10;94.80;;;;;;5013656;28;20048;-89
2022/04/23 05:26:12;;;;;;;12.18;10.10;;;10.10;94.90;;;;;;5017646;28;20037;-89
2022/04/23 05:28:41;;;;;;;13.13;10.77;;;10.10;94.80;;;;;;5015242;28;20104;-89
2022/04/23 05:31:08;;;;;;;10.02;8.75;;;10.20;94.80;;;;;;5017516;28;20029;-88
2022/04/23 05:58:25;;;;;;;5.00;4.50;;;10.80;94.20;;;;;;5008256;28;20149;-91
2022/04/23 06:00:56;;;;;;;5.63;5.00;;;10.80;94.30;;;;;;5010988;28;20090;-92
2022/04/23 06:03:22;;;;;;;4.60;4.20;;;10.80;94.10;;;;;;5006423;28;20041;-91
2022/04/23 06:05:48;;;;;;;4.32;3.92;;;10.80;94.10;;;;;;4993484;28;20007;-90
2022/04/23 06:08:16;;;;;;;5.93;4.22;;;10.90;94.10;;;;;;4984089;28;20525;-90
2022/04/23 06:10:42;;;;;;;5.75;4.60;;;10.90;94.10;;;;;;4994617;28;20045;-90
2022/04/23 06:13:22;;;;;;;5.13;4.63;;;10.90;94.10;;;;;;4982110;28;20060;-90
2022/04/23 06:16:07;;;;;;;5.13;4.60;;;11.00;94.20;;;;;;4983652;28;20023;-90
2022/04/23 06:18:32;;;;;;;4.60;4.00;;;11.00;94.00;;;;;;4989590;28;20108;-88
2022/04/23 06:21:00;;;;;;;4.25;3.85;;;11.10;93.90;;;;;;4997859;28;20043;-88
2022/04/23 06:23:30;;;;;;;6.18;4.70;;;11.10;94.00;;;;;;4996165;28;20411;-91
2022/04/23 06:28:31;;;;;;;5.15;4.65;;;11.30;93.80;;;;;;5093608;23;20456;-91
2022/04/23 06:30:57;;;;;;;4.80;4.35;;;11.30;93.50;;;;;;4993014;28;20031;-91
2022/04/23 06:33:22;;;;;;;4.70;4.30;;;11.30;93.30;;;;;;4999227;28;20045;-91
2022/04/23 06:39:07;;;;;;;;;;;;;;;;;;;;;
2022/04/23 08:45:43;;;;;;;5.97;4.55;;;11.80;91.20;;;;;;5022712;28;20069;-84
2022/04/23 08:48:11;;;;;;;4.50;4.10;;;11.90;91.10;;;;;;5017102;28;20049;-86
2022/04/23 08:50:38;;;;;;;5.43;4.75;;;12.00;91.00;;;;;;5012644;28;20513;-84
2022/04/23 08:53:11;;;;;;;4.05;3.65;;;12.00;90.70;;;;;;5015514;28;20088;-85
2022/04/23 08:55:40;;;;;;;5.90;4.38;;;12.00;90.70;;;;;;5000802;28;20022;-84
2022/04/23 08:58:05;;;;;;;5.68;3.35;;;12.10;90.70;;;;;;5004571;28;20022;-85
2022/04/23 09:00:31;;;;;;;4.25;3.80;;;12.20;90.60;;;;;;5018005;28;20050;-85
2022/04/23 09:02:57;;;;;;;3.90;3.45;;;12.20;90.50;;;;;;5001012;28;20053;-84
2022/04/23 09:05:25;;;;;;;6.82;4.20;;;12.30;90.50;;;;;;4995199;28;20487;-86
2022/04/23 09:07:53;;;;;;;4.55;3.90;;;12.30;90.40;;;;;;4990027;28;20188;-85
2022/04/23 09:10:20;;;;;;;3.97;3.58;;;12.30;90.40;;;;;;4987947;28;20031;-85
2022/04/23 09:12:58;;;;;;;5.75;4.45;;;12.40;90.20;;;;;;4997979;28;20022;-84
2022/04/23 09:23:44;;;;;;;7.68;5.05;;;12.30;90.00;;;;;;5002497;28;20045;-82
2022/04/23 09:26:22;;;;;;;6.22;4.65;;;12.30;89.80;;;;;;4978873;28;20129;-86
2022/04/23 09:28:49;;;;;;;6.60;5.32;;;12.40;89.90;;;;;;4982654;28;20464;-84
2022/04/23 09:31:15;;;;;;;6.50;5.45;;;12.40;89.70;;;;;;4998899;28;20038;-84
2022/04/23 09:33:54;;;;;;;5.97;5.13;;;12.40;89.50;;;;;;4998440;28;20026;-85
2022/04/23 09:36:20;;;;;;;7.03;5.13;;;12.40;89.50;;;;;;4983148;28;20029;-85
2022/04/23 09:39:00;;;;;;;7.72;5.78;;;12.40;89.30;;;;;;4996526;28;20019;-84
2022/04/23 09:41:33;;;;;;;6.20;5.32;;;12.50;89.40;;;;;;5000170;28;20057;-83
2022/04/23 09:44:28;;;;;;;7.57;5.32;;;12.40;89.10;;;;;;5015410;28;20038;-84
2022/04/23 09:46:54;;;;;;;8.35;5.68;;;12.50;89.00;;;;;;5012015;28;20042;-85
2022/04/23 09:49:23;;;;;;;7.35;4.88;;;12.60;88.80;;;;;;5014124;28;20030;-83
2022/04/23 09:52:25;;;;;;;6.78;4.80;;;12.60;88.80;;;;;;4996392;28;20462;-86
2022/04/23 09:54:53;;;;;;;7.50;5.60;;;12.60;88.60;;;;;;4970146;28;20081;-84
2022/04/23 09:57:19;;;;;;;6.10;4.85;;;12.70;88.30;;;;;;4986309;28;20034;-84
2022/04/23 09:59:45;;;;;;;7.00;5.20;;;12.80;88.10;;;;;;4983010;28;20022;-84
2022/04/23 10:02:18;;;;;;;6.95;5.30;;;12.80;88.10;;;;;;4998281;28;20029;-84
2022/04/23 10:04:44;;;;;;;7.00;5.05;;;12.90;87.90;;;;;;4996318;28;20110;-84
2022/04/23 10:07:11;;;;;;;8.10;5.60;;;12.90;87.70;;;;;;4989179;28;20030;-86
2022/04/23 10:09:41;;;;;;;7.20;5.05;;;12.90;87.50;;;;;;4991668;28;20061;-84
2022/04/23 10:12:09;;;;;;;8.10;5.38;;;13.00;87.40;;;;;;4979168;28;20026;-83
2022/04/23 10:15:01;;;;;;;8.75;5.18;;;13.00;87.40;;;;;;4977939;28;20100;-86
2022/04/23 10:17:28;;;;;;;7.75;5.45;;;13.00;87.40;;;;;;4979743;28;20065;-86
2022/04/23 10:19:54;;;;;;;8.02;5.32;;;13.00;87.30;;;;;;5019143;28;20045;-83
2022/04/23 10:22:31;;;;;;;8.50;5.88;;;13.10;87.20;;;;;;5005197;28;20027;-84
2022/04/23 10:25:09;;;;;;;6.90;5.00;;;13.10;87.00;;;;;;4996369;28;20054;-85
2022/04/23 10:27:35;;;;;;;8.38;5.18;;;13.20;86.90;;;;;;5001376;28;20022;-83
2022/04/23 10:30:04;;;;;;;7.05;4.82;;;13.20;86.60;;;;;;5013341;28;20029;-84
2022/04/23 10:32:40;;;;;;;9.82;5.32;;;13.20;86.40;;;;;;5016565;28;20034;-84
2022/04/23 10:35:18;;;;;;;8.32;5.55;;;13.20;86.20;;;;;;4996462;28;20021;-83
2022/04/23 10:37:46;;;;;;;8.63;5.30;;;13.20;86.10;;;;;;5002957;28;20049;-86
2022/04/23 10:40:19;;;;;;;8.25;5.47;;;13.20;86.20;;;;;;4998820;28;20026;-84
2022/04/23 10:43:20;;;;;;;7.43;5.15;;;13.20;86.20;;;;;;4980498;28;20054;-85
2022/04/23 10:45:48;;;;;;;9.35;5.70;;;13.20;86.10;;;;;;4919113;29;20036;-84
2022/04/23 10:48:19;;;;;;;7.22;5.25;;;13.30;86.00;;;;;;4994297;28;20494;-85
2022/04/23 10:51:16;;;;;;;6.90;5.50;;;13.40;86.10;;;;;;4997137;28;20026;-85
2022/04/23 10:53:41;;;;;;;9.43;5.65;;;13.40;85.80;;;;;;4995326;28;20051;-86
2022/04/23 10:56:10;;;;;;;7.30;5.60;;;13.40;85.60;;;;;;4998522;28;20033;-85
2022/04/23 10:58:38;;;;;;;7.32;5.70;;;13.40;85.60;;;;;;4995357;28;20046;-84
2022/04/23 11:01:24;;;;;;;9.30;5.50;;;13.40;85.30;;;;;;5011558;28;20044;-86
2022/04/23 11:03:57;;;;;;;8.00;6.10;;;13.50;85.30;;;;;;5019302;28;20474;-84
2022/04/23 11:12:30;;;;;;;8.88;6.28;;;13.60;85.30;;;;;;5019213;28;20413;-84
2022/04/23 11:14:56;;;;;;;8.82;5.60;;;13.60;84.70;;;;;;5010344;28;20029;-84
2022/04/23 11:17:32;;;;;;;7.72;5.88;;;13.60;84.70;;;;;;4981824;28;20529;-85
2022/04/23 11:19:59;;;;;;;7.57;5.72;;;13.70;84.90;;;;;;4981873;28;20030;-86
2022/04/23 11:22:25;;;;;;;8.43;6.22;;;13.70;84.70;;;;;;5005242;28;20022;-82
2022/04/23 11:24:53;;;;;;;8.10;6.13;;;13.80;84.80;;;;;;4996454;28;20069;-84
2022/04/23 11:27:25;;;;;;;8.15;5.95;;;13.80;84.60;;;;;;4986429;28;20026;-84
2022/04/23 11:29:54;;;;;;;;;;;13.90;84.60;;;;;;4996366;28;20022;-85
2022/04/23 11:32:28;;;;;;;10.25;6.50;;;13.90;84.20;;;;;;4987238;28;20457;-85
2022/04/23 11:35:07;;;;;;;6.97;5.50;;;14.00;83.90;;;;;;5007798;28;20054;-85
2022/04/23 11:37:34;;;;;;;6.30;5.68;;;14.00;83.70;;;;;;4982107;28;20380;-83
2022/04/23 11:40:10;;;;;;;9.05;6.00;;;14.00;83.40;;;;;;4981354;28;20022;-84
2022/04/23 11:42:40;;;;;;;7.25;5.35;;;14.00;83.50;;;;;;5017663;28;20149;-83
2022/04/23 11:45:07;;;;;;;7.85;5.88;;;14.10;83.50;;;;;;5030791;28;20045;-84
2022/04/23 11:47:33;;;;;;;9.05;6.20;;;14.10;83.50;;;;;;4986380;28;20059;-85
2022/04/23 11:50:13;;;;;;;9.52;6.32;;;14.10;83.20;;;;;;4993852;28;20061;-84
2022/04/23 11:52:41;;;;;;;8.50;5.72;;;14.20;83.20;;;;;;4987869;28;20057;-84
2022/04/23 11:55:08;;;;;;;8.60;5.60;;;14.30;83.00;;;;;;5016844;28;20109;-84
2022/04/23 11:57:35;;;;;;;8.05;5.93;;;14.30;82.50;;;;;;5002371;28;20022;-85
2022/04/23 12:00:03;;;;;;;7.80;6.05;;;14.30;82.50;;;;;;5016690;28;20037;-86
2022/04/23 12:02:32;;;;;;;10.25;6.55;;;14.30;82.40;;;;;;5017896;28;20430;-86
2022/04/23 12:05:02;;;;;;;8.25;5.82;;;14.30;82.20;;;;;;4990447;28;20105;-84
2022/04/23 12:07:32;;;;;;;7.18;5.90;;;14.30;81.90;;;;;;4988833;28;20058;-86
2022/04/23 12:10:00;;;;;;;9.18;6.72;;;14.20;81.70;;;;;;4978503;28;20493;-86
2022/04/23 12:12:30;;;;;;;10.30;6.45;;;14.20;81.70;;;;;;4980010;28;20026;-87
2022/04/23 12:15:02;;;;;;;6.60;5.47;;;14.30;81.70;;;;;;5014243;28;20021;-86
2022/04/23 12:17:29;;;;;;;7.13;6.03;;;14.20;81.50;;;;;;4999038;28;20026;-87
2022/04/23 12:19:59;;;;;;;9.45;5.80;;;14.20;81.50;;;;;;4996263;28;20026;-85
2022/04/23 12:22:30;;;;;;;8.95;6.40;;;14.20;81.50;;;;;;5013884;28;20030;-86
2022/04/23 12:25:07;;;;;;;9.35;6.65;;;14.30;81.50;;;;;;4981911;28;20023;-87
2022/04/23 12:27:56;;;;;;;8.20;6.45;;;14.40;81.40;;;;;;5004796;28;20494;-83
2022/04/23 12:42:10;;;;;;;8.45;6.60;;;14.50;81.10;;;;;;4997378;28;20089;-87
2022/04/23 12:44:46;;;;;;;8.38;5.95;;;14.50;80.70;;;;;;5011553;28;20394;-86
2022/04/23 12:47:16;;;;;;;10.27;7.03;;;14.50;80.70;;;;;;5000537;28;20431;-85
2022/04/23 12:49:48;;;;;;;13.55;6.57;;;14.60;80.90;;;;;;5013850;28;20560;-86
2022/04/23 12:52:22;;;;;;;10.53;6.80;;;14.70;80.90;;;;;;4997900;28;20014;-85
2022/04/23 12:55:15;;;;;;;8.02;6.45;;;14.70;80.60;;;;;;5013123;28;20022;-85
2022/04/23 12:57:51;;;;;;;9.75;6.97;;;14.80;80.70;;;;;;5002641;28;20018;-85
2022/04/23 13:00:21;;;;;;;11.32;6.93;;;14.80;80.30;;;;;;4991808;28;20060;-85
2022/04/23 13:02:51;;;;;;;9.00;7.05;;;14.80;80.10;;;;;;4975770;28;20023;-85
2022/04/23 13:05:18;;;;;;;9.73;6.72;;;14.80;80.00;;;;;;4986118;28;20033;-85
2022/04/23 13:10:29;;;;;;;9.75;6.47;;;15.00;80.20;;;;;;4998083;28;20068;-86
2022/04/23 13:12:55;;;;;;;11.57;7.05;;;15.10;79.90;;;;;;4981738;28;20463;-86
2022/04/23 13:15:20;;;;;;;8.80;6.50;;;15.10;79.70;;;;;;4982132;28;20057;-87
2022/04/23 13:17:47;;;;;;;10.70;7.22;;;15.20;79.60;;;;;;5015141;28;20018;-86
2022/04/23 13:20:14;;;;;;;11.27;7.32;;;15.20;79.30;;;;;;4985539;28;20069;-85
2022/04/23 13:22:41;;;;;;;12.02;7.55;;;15.10;79.00;;;;;;4994841;28;20448;-85
2022/04/23 13:25:07;;;;;;;13.50;7.28;;;15.10;79.00;;;;;;4996224;28;20033;-85
2022/04/23 13:27:33;;;;;;;10.40;7.10;;;15.10;78.90;;;;;;5013582;28;20026;-86
2022/04/23 13:29:59;;;;;;;9.68;7.20;;;15.10;78.70;;;;;;5011762;28;20061;-85
2022/04/23 13:32:25;;;;;;;8.90;6.93;;;15.00;78.80;;;;;;5015383;28;20034;-85
2022/04/23 13:34:51;;;;;;;11.05;8.35;;;15.00;79.00;;;;;;4994946;28;20076;-86
2022/04/23 13:37:17;;;;;;;17.27;11.70;;;15.00;79.20;;;;;;5014865;28;20514;-85
2022/04/23 13:39:43;;;;;;;19.08;12.35;;;14.90;79.40;;;;;;5007912;28;20129;-85
2022/04/23 13:42:09;;;;;;;18.05;12.45;;;15.00;79.80;;;;;;4982035;28;20485;-86
2022/04/23 13:44:35;;;;;;;18.23;12.15;;;15.00;79.80;;;;;;5015828;28;20069;-84
2022/04/23 13:47:02;;;;;;;17.42;11.85;;;14.90;79.60;;;;;;5017755;28;20029;-87
2022/04/23 13:49:27;;;;;;;18.88;11.80;;;15.00;79.50;;;;;;4996438;28;20036;-86
2022/04/23 13:51:53;;;;;;;18.38;12.75;;;15.00;79.50;;;;;;4997288;28;20022;-85
2022/04/23 13:54:19;;;;;;;17.38;11.93;;;15.20;79.60;;;;;;5001266;28;20022;-85
2022/04/23 13:56:47;;;;;;;18.25;12.63;;;15.20;79.40;;;;;;5016205;28;20026;-84
2022/04/23 13:59:12;;;;;;;21.92;13.57;;;15.30;79.30;;;;;;5015127;28;20759;-84
2022/04/23 14:01:38;;;;;;;18.42;12.85;;;15.40;79.50;;;;;;4998870;28;20033;-84
2022/04/23 14:12:17;;;;;;;16.50;12.27;;;15.40;78.60;;;;;;5002633;28;20037;-85
2022/04/23 14:14:42;;;;;;;20.58;12.73;;;15.30;78.50;;;;;;4981906;28;20023;-85
2022/04/23 14:17:08;;;;;;;18.05;12.93;;;15.30;78.80;;;;;;5008917;28;20398;-83
2022/04/23 14:19:35;;;;;;;15.93;11.48;;;15.30;79.00;;;;;;4988811;28;20443;-85
2022/04/23 14:22:03;;;;;;;17.23;11.55;;;15.30;78.90;;;;;;5012213;28;20014;-84
2022/04/23 14:24:29;;;;;;;15.55;10.95;;;15.30;78.80;;;;;;5000592;28;20018;-85
2022/04/23 14:26:55;;;;;;;19.05;11.45;;;15.30;78.80;;;;;;5003844;28;20103;-85
2022/04/23 14:29:21;;;;;;;17.15;11.05;;;15.30;78.90;;;;;;5002433;28;20022;-84
2022/04/23 14:31:46;;;;;;;18.00;11.05;;;15.20;78.80;;;;;;5001268;28;20037;-84
2022/04/23 14:34:12;;;;;;;15.48;10.63;;;15.20;78.70;;;;;;4999185;28;20379;-83
2022/04/23 14:36:38;;;;;;;17.17;11.50;;;15.20;78.80;;;;;;4982883;28;20611;-84
2022/04/23 14:39:05;;;;;;;17.23;11.60;;;15.20;78.80;;;;;;4982180;28;20038;-85
2022/04/23 16:10:52;;;;;;;13.30;9.43;;;15.20;79.30;;;;;;5004345;28;20492;-89
2022/04/23 22:35:11;;;;;;;10.77;8.43;;;11.40;88.10;;;;;;4987755;28;20045;-91
2022/04/23 23:36:47;;;;;;;10.80;8.27;;;10.90;89.90;;;;;;4896922;29;20035;-90
2022/04/23 23:43:36;;;;;;;10.10;7.63;;;10.90;90.00;;;;;;4942137;28;20513;-91
2022/04/23 23:53:44;;;;;;;10.60;7.80;;;10.70;90.10;;;;;;4954073;28;20054;-90
2022/04/23 23:57:43;;;;;;;10.02;7.55;;;10.70;90.20;;;;;;4896993;29;20372;-90
